sensor_id;sensor_type;location;lat;lon;timestamp;P1;durP1;ratioP1;P2;durP2;ratioP2
53833;SDS011;39735;51.432;5.482;2023-06-22T00:01:52;6.53;;;4.53;;
53833;SDS011;39735;51.432;5.482;2023-06-22T00:04:17;5.60;;;4.77;;
53833;SDS011;39735;51.432;5.482;2023-06-22T00:09:45;5.32;;;4.72;;
53833;SDS011;39735;51.432;5.482;2023-06-22T00:12:11;6.90;;;5.38;;
53833;SDS011;39735;51.432;5.482;2023-06-22T00:14:36;7.57;;;6.77;;
53833;SDS011;39735;51.432;5.482;2023-06-22T00:17:01;9.57;;;6.03;;
53833;SDS011;39735;51.432;5.482;2023-06-22T00:19:26;22.95;;;5.72;;
53833;SDS011;39735;51.432;5.482;2023-06-22T00:21:52;7.25;;;6.65;;
53833;SDS011;39735;51.432;5.482;2023-06-22T00:24:21;9.27;;;4.93;;
53833;SDS011;39735;51.432;5.482;2023-06-22T00:26:49;6.28;;;5.07;;
53833;SDS011;39735;51.432;5.482;2023-06-22T00:29:15;17.60;;;5.43;;
53833;SDS011;39735;51.432;5.482;2023-06-22T00:31:40;14.80;;;6.07;;
53833;SDS011;39735;51.432;5.482;2023-06-22T00:40:11;5.97;;;5.28;;
53833;SDS011;39735;51.432;5.482;2023-06-22T00:42:40;7.68;;;7.00;;
53833;SDS011;39735;51.432;5.482;2023-06-22T00:45:05;8.90;;;6.35;;
53833;SDS011;39735;51.432;5.482;2023-06-22T00:47:31;7.57;;;6.53;;
53833;SDS011;39735;51.432;5.482;2023-06-22T00:49:57;9.70;;;7.25;;
53833;SDS011;39735;51.432;5.482;2023-06-22T00:52:22;10.95;;;7.32;;
53833;SDS011;39735;51.432;5.482;2023-06-22T00:54:52;10.05;;;6.53;;
53833;SDS011;39735;51.432;5.482;2023-06-22T00:57:17;7.43;;;6.72;;
53833;SDS011;39735;51.432;5.482;2023-06-22T00:59:44;9.18;;;7.35;;
53833;SDS011;39735;51.432;5.482;2023-06-22T01:02:09;12.98;;;8.55;;
53833;SDS011;39735;51.432;5.482;2023-06-22T01:04:35;14.85;;;7.05;;
53833;SDS011;39735;51.432;5.482;2023-06-22T01:09:38;8.88;;;7.43;;
53833;SDS011;39735;51.432;5.482;2023-06-22T01:12:06;11.30;;;8.40;;
53833;SDS011;39735;51.432;5.482;2023-06-22T01:14:35;11.23;;;7.25;;
53833;SDS011;39735;51.432;5.482;2023-06-22T01:17:03;7.43;;;6.72;;
53833;SDS011;39735;51.432;5.482;2023-06-22T01:19:46;9.13;;;7.28;;
53833;SDS011;39735;51.432;5.482;2023-06-22T01:22:14;8.82;;;7.97;;
53833;SDS011;39735;51.432;5.482;2023-06-22T01:27:11;15.70;;;8.67;;
53833;SDS011;39735;51.432;5.482;2023-06-22T01:29:48;13.32;;;8.23;;
53833;SDS011;39735;51.432;5.482;2023-06-22T01:32:13;18.63;;;7.85;;
53833;SDS011;39735;51.432;5.482;2023-06-22T01:34:39;11.50;;;8.32;;
53833;SDS011;39735;51.432;5.482;2023-06-22T01:37:05;9.30;;;7.43;;
53833;SDS011;39735;51.432;5.482;2023-06-22T01:39:31;10.30;;;8.85;;
53833;SDS011;39735;51.432;5.482;2023-06-22T01:41:56;13.15;;;9.27;;
53833;SDS011;39735;51.432;5.482;2023-06-22T01:44:22;16.13;;;10.10;;
53833;SDS011;39735;51.432;5.482;2023-06-22T01:46:47;12.65;;;8.07;;
53833;SDS011;39735;51.432;5.482;2023-06-22T01:49:14;13.70;;;9.27;;
53833;SDS011;39735;51.432;5.482;2023-06-22T01:51:40;13.23;;;8.88;;
53833;SDS011;39735;51.432;5.482;2023-06-22T01:54:05;11.05;;;8.07;;
53833;SDS011;39735;51.432;5.482;2023-06-22T01:56:31;16.20;;;8.13;;
53833;SDS011;39735;51.432;5.482;2023-06-22T01:59:09;12.27;;;9.00;;
53833;SDS011;39735;51.432;5.482;2023-06-22T02:01:40;15.55;;;8.48;;
53833;SDS011;39735;51.432;5.482;2023-06-22T02:04:08;12.73;;;9.68;;
53833;SDS011;39735;51.432;5.482;2023-06-22T02:06:36;29.75;;;9.35;;
53833;SDS011;39735;51.432;5.482;2023-06-22T02:09:05;11.75;;;9.10;;
53833;SDS011;39735;51.432;5.482;2023-06-22T02:11:31;10.90;;;9.35;;
53833;SDS011;39735;51.432;5.482;2023-06-22T02:13:58;12.13;;;9.50;;
53833;SDS011;39735;51.432;5.482;2023-06-22T02:16:23;12.57;;;8.85;;
53833;SDS011;39735;51.432;5.482;2023-06-22T02:18:49;11.23;;;7.93;;
53833;SDS011;39735;51.432;5.482;2023-06-22T02:21:17;17.02;;;10.05;;
53833;SDS011;39735;51.432;5.482;2023-06-22T02:23:43;20.85;;;9.60;;
53833;SDS011;39735;51.432;5.482;2023-06-22T02:26:08;11.43;;;8.70;;
53833;SDS011;39735;51.432;5.482;2023-06-22T02:28:33;10.65;;;8.75;;
53833;SDS011;39735;51.432;5.482;2023-06-22T02:30:58;15.48;;;10.15;;
53833;SDS011;39735;51.432;5.482;2023-06-22T02:33:24;12.13;;;8.75;;
53833;SDS011;39735;51.432;5.482;2023-06-22T02:35:49;10.80;;;9.10;;
53833;SDS011;39735;51.432;5.482;2023-06-22T02:38:15;18.45;;;11.18;;
53833;SDS011;39735;51.432;5.482;2023-06-22T02:40:40;16.17;;;10.30;;
53833;SDS011;39735;51.432;5.482;2023-06-22T02:43:05;12.70;;;10.35;;
53833;SDS011;39735;51.432;5.482;2023-06-22T02:45:30;10.53;;;9.50;;
53833;SDS011;39735;51.432;5.482;2023-06-22T02:47:55;16.65;;;9.48;;
53833;SDS011;39735;51.432;5.482;2023-06-22T02:50:21;15.82;;;10.60;;
53833;SDS011;39735;51.432;5.482;2023-06-22T02:52:46;15.48;;;10.88;;
53833;SDS011;39735;51.432;5.482;2023-06-22T02:55:11;18.43;;;9.60;;
53833;SDS011;39735;51.432;5.482;2023-06-22T02:57:36;19.27;;;10.43;;
53833;SDS011;39735;51.432;5.482;2023-06-22T03:00:03;17.02;;;9.93;;
53833;SDS011;39735;51.432;5.482;2023-06-22T03:02:38;15.68;;;10.35;;
53833;SDS011;39735;51.432;5.482;2023-06-22T03:05:04;15.23;;;10.55;;
53833;SDS011;39735;51.432;5.482;2023-06-22T03:07:31;52.83;;;13.15;;
53833;SDS011;39735;51.432;5.482;2023-06-22T03:09:56;19.63;;;10.53;;
53833;SDS011;39735;51.432;5.482;2023-06-22T03:12:22;17.98;;;11.93;;
53833;SDS011;39735;51.432;5.482;2023-06-22T03:14:47;16.43;;;10.73;;
53833;SDS011;39735;51.432;5.482;2023-06-22T03:17:12;15.93;;;11.43;;
53833;SDS011;39735;51.432;5.482;2023-06-22T03:19:37;18.35;;;10.35;;
53833;SDS011;39735;51.432;5.482;2023-06-22T03:22:03;15.77;;;11.73;;
53833;SDS011;39735;51.432;5.482;2023-06-22T03:24:28;25.15;;;13.23;;
53833;SDS011;39735;51.432;5.482;2023-06-22T03:26:54;23.95;;;12.10;;
53833;SDS011;39735;51.432;5.482;2023-06-22T03:29:20;16.42;;;12.20;;
53833;SDS011;39735;51.432;5.482;2023-06-22T03:31:45;22.67;;;13.63;;
53833;SDS011;39735;51.432;5.482;2023-06-22T03:34:10;14.07;;;11.57;;
53833;SDS011;39735;51.432;5.482;2023-06-22T03:36:35;15.27;;;12.07;;
53833;SDS011;39735;51.432;5.482;2023-06-22T03:39:00;16.17;;;13.53;;
53833;SDS011;39735;51.432;5.482;2023-06-22T03:41:26;19.13;;;13.00;;
53833;SDS011;39735;51.432;5.482;2023-06-22T03:43:51;18.67;;;11.88;;
53833;SDS011;39735;51.432;5.482;2023-06-22T03:46:17;20.25;;;13.95;;
53833;SDS011;39735;51.432;5.482;2023-06-22T03:48:42;18.52;;;12.85;;
53833;SDS011;39735;51.432;5.482;2023-06-22T03:51:07;16.53;;;13.77;;
53833;SDS011;39735;51.432;5.482;2023-06-22T03:53:32;25.38;;;12.95;;
53833;SDS011;39735;51.432;5.482;2023-06-22T03:55:59;20.77;;;14.13;;
53833;SDS011;39735;51.432;5.482;2023-06-22T03:58:24;17.30;;;14.27;;
53833;SDS011;39735;51.432;5.482;2023-06-22T04:00:50;16.63;;;13.32;;
53833;SDS011;39735;51.432;5.482;2023-06-22T04:03:16;23.33;;;14.25;;
53833;SDS011;39735;51.432;5.482;2023-06-22T04:05:44;31.85;;;14.18;;
53833;SDS011;39735;51.432;5.482;2023-06-22T04:08:10;15.90;;;12.60;;
53833;SDS011;39735;51.432;5.482;2023-06-22T04:10:35;21.42;;;12.85;;
53833;SDS011;39735;51.432;5.482;2023-06-22T04:13:00;16.55;;;11.45;;
53833;SDS011;39735;51.432;5.482;2023-06-22T04:15:26;23.23;;;13.45;;
53833;SDS011;39735;51.432;5.482;2023-06-22T04:17:51;26.23;;;14.30;;
53833;SDS011;39735;51.432;5.482;2023-06-22T04:20:16;14.23;;;12.93;;
53833;SDS011;39735;51.432;5.482;2023-06-22T04:22:42;18.53;;;14.00;;
53833;SDS011;39735;51.432;5.482;2023-06-22T04:25:07;18.50;;;14.27;;
53833;SDS011;39735;51.432;5.482;2023-06-22T04:27:32;18.58;;;12.98;;
53833;SDS011;39735;51.432;5.482;2023-06-22T04:30:02;27.50;;;13.52;;
53833;SDS011;39735;51.432;5.482;2023-06-22T04:32:27;23.30;;;14.90;;
53833;SDS011;39735;51.432;5.482;2023-06-22T04:34:52;19.87;;;15.37;;
53833;SDS011;39735;51.432;5.482;2023-06-22T04:37:17;29.33;;;14.97;;
53833;SDS011;39735;51.432;5.482;2023-06-22T04:39:43;25.73;;;14.20;;
53833;SDS011;39735;51.432;5.482;2023-06-22T04:42:08;24.75;;;16.15;;
53833;SDS011;39735;51.432;5.482;2023-06-22T04:44:33;38.93;;;12.30;;
53833;SDS011;39735;51.432;5.482;2023-06-22T04:46:59;45.23;;;18.03;;
53833;SDS011;39735;51.432;5.482;2023-06-22T04:49:33;20.13;;;15.38;;
53833;SDS011;39735;51.432;5.482;2023-06-22T04:52:00;28.80;;;16.48;;
53833;SDS011;39735;51.432;5.482;2023-06-22T04:54:25;27.77;;;17.83;;
53833;SDS011;39735;51.432;5.482;2023-06-22T04:56:51;27.17;;;14.15;;
53833;SDS011;39735;51.432;5.482;2023-06-22T04:59:21;30.77;;;16.13;;
53833;SDS011;39735;51.432;5.482;2023-06-22T05:01:47;27.52;;;16.00;;
53833;SDS011;39735;51.432;5.482;2023-06-22T05:04:12;23.73;;;16.50;;
53833;SDS011;39735;51.432;5.482;2023-06-22T05:06:37;37.35;;;16.67;;
53833;SDS011;39735;51.432;5.482;2023-06-22T05:09:03;27.52;;;17.02;;
53833;SDS011;39735;51.432;5.482;2023-06-22T05:11:28;31.30;;;18.52;;
53833;SDS011;39735;51.432;5.482;2023-06-22T05:13:54;25.50;;;18.10;;
53833;SDS011;39735;51.432;5.482;2023-06-22T05:16:19;38.28;;;18.08;;
53833;SDS011;39735;51.432;5.482;2023-06-22T05:18:49;29.33;;;18.77;;
53833;SDS011;39735;51.432;5.482;2023-06-22T05:21:14;25.58;;;17.50;;
53833;SDS011;39735;51.432;5.482;2023-06-22T05:23:40;44.70;;;18.00;;
53833;SDS011;39735;51.432;5.482;2023-06-22T05:26:05;26.10;;;16.97;;
53833;SDS011;39735;51.432;5.482;2023-06-22T05:28:30;33.63;;;16.87;;
53833;SDS011;39735;51.432;5.482;2023-06-22T05:40:25;32.85;;;18.15;;
53833;SDS011;39735;51.432;5.482;2023-06-22T05:51:59;31.65;;;18.42;;
53833;SDS011;39735;51.432;5.482;2023-06-22T06:00:30;37.20;;;18.30;;
53833;SDS011;39735;51.432;5.482;2023-06-22T06:05:58;25.08;;;18.77;;
53833;SDS011;39735;51.432;5.482;2023-06-22T06:11:26;25.50;;;16.42;;
53833;SDS011;39735;51.432;5.482;2023-06-22T06:19:58;35.45;;;18.85;;
53833;SDS011;39735;51.432;5.482;2023-06-22T06:25:34;30.20;;;15.77;;
53833;SDS011;39735;51.432;5.482;2023-06-22T21:29:03;31.52;;;17.15;;
53833;SDS011;39735;51.432;5.482;2023-06-22T21:31:28;25.77;;;16.92;;
53833;SDS011;39735;51.432;5.482;2023-06-22T21:33:53;27.00;;;16.13;;
53833;SDS011;39735;51.432;5.482;2023-06-22T21:36:18;18.23;;;15.00;;
53833;SDS011;39735;51.432;5.482;2023-06-22T21:38:44;26.43;;;15.40;;
53833;SDS011;39735;51.432;5.482;2023-06-22T21:41:09;19.75;;;14.15;;
53833;SDS011;39735;51.432;5.482;2023-06-22T21:43:34;20.43;;;15.43;;
53833;SDS011;39735;51.432;5.482;2023-06-22T21:46:01;20.80;;;14.00;;
53833;SDS011;39735;51.432;5.482;2023-06-22T21:48:26;33.97;;;14.05;;
53833;SDS011;39735;51.432;5.482;2023-06-22T21:50:51;23.00;;;14.23;;
53833;SDS011;39735;51.432;5.482;2023-06-22T21:53:16;17.30;;;13.93;;
53833;SDS011;39735;51.432;5.482;2023-06-22T21:55:42;31.97;;;16.70;;
53833;SDS011;39735;51.432;5.482;2023-06-22T21:58:07;25.00;;;15.83;;
53833;SDS011;39735;51.432;5.482;2023-06-22T22:00:32;26.33;;;15.40;;
53833;SDS011;39735;51.432;5.482;2023-06-22T22:02:58;25.60;;;13.75;;
53833;SDS011;39735;51.432;5.482;2023-06-22T22:05:23;24.10;;;12.57;;
53833;SDS011;39735;51.432;5.482;2023-06-22T22:07:48;26.07;;;14.37;;
53833;SDS011;39735;51.432;5.482;2023-06-22T22:10:13;33.83;;;14.50;;
53833;SDS011;39735;51.432;5.482;2023-06-22T22:12:39;19.25;;;14.20;;
53833;SDS011;39735;51.432;5.482;2023-06-22T22:15:04;16.42;;;13.93;;
53833;SDS011;39735;51.432;5.482;2023-06-22T22:17:30;21.77;;;14.18;;
53833;SDS011;39735;51.432;5.482;2023-06-22T22:19:55;25.77;;;13.37;;
53833;SDS011;39735;51.432;5.482;2023-06-22T22:22:20;14.48;;;12.88;;
53833;SDS011;39735;51.432;5.482;2023-06-22T22:24:45;16.20;;;11.70;;
53833;SDS011;39735;51.432;5.482;2023-06-22T22:27:11;14.83;;;11.97;;
53833;SDS011;39735;51.432;5.482;2023-06-22T22:29:36;22.63;;;11.10;;
53833;SDS011;39735;51.432;5.482;2023-06-22T22:32:01;18.50;;;12.25;;
53833;SDS011;39735;51.432;5.482;2023-06-22T22:34:27;24.80;;;12.13;;
53833;SDS011;39735;51.432;5.482;2023-06-22T22:36:52;37.00;;;10.05;;
53833;SDS011;39735;51.432;5.482;2023-06-22T22:39:33;15.90;;;11.50;;
53833;SDS011;39735;51.432;5.482;2023-06-22T22:42:00;21.08;;;10.57;;
53833;SDS011;39735;51.432;5.482;2023-06-22T22:44:25;24.00;;;11.52;;
53833;SDS011;39735;51.432;5.482;2023-06-22T22:46:50;27.17;;;9.03;;
53833;SDS011;39735;51.432;5.482;2023-06-22T22:49:15;13.30;;;9.93;;
53833;SDS011;39735;51.432;5.482;2023-06-22T22:51:41;22.20;;;8.97;;
53833;SDS011;39735;51.432;5.482;2023-06-22T22:54:06;16.10;;;9.00;;
53833;SDS011;39735;51.432;5.482;2023-06-22T22:56:33;11.82;;;8.60;;
53833;SDS011;39735;51.432;5.482;2023-06-22T22:58:58;14.50;;;9.10;;
53833;SDS011;39735;51.432;5.482;2023-06-22T23:01:23;9.63;;;7.87;;
53833;SDS011;39735;51.432;5.482;2023-06-22T23:03:48;15.73;;;8.93;;
53833;SDS011;39735;51.432;5.482;2023-06-22T23:06:14;27.60;;;8.52;;
53833;SDS011;39735;51.432;5.482;2023-06-22T23:08:39;24.53;;;9.03;;
53833;SDS011;39735;51.432;5.482;2023-06-22T23:11:04;9.63;;;8.27;;
53833;SDS011;39735;51.432;5.482;2023-06-22T23:13:30;12.13;;;8.13;;
53833;SDS011;39735;51.432;5.482;2023-06-22T23:15:55;19.00;;;8.02;;
53833;SDS011;39735;51.432;5.482;2023-06-22T23:18:21;12.52;;;6.97;;
53833;SDS011;39735;51.432;5.482;2023-06-22T23:20:46;23.25;;;8.95;;
53833;SDS011;39735;51.432;5.482;2023-06-22T23:23:11;34.30;;;8.40;;
53833;SDS011;39735;51.432;5.482;2023-06-22T23:25:37;17.15;;;8.23;;
53833;SDS011;39735;51.432;5.482;2023-06-22T23:28:03;11.35;;;7.50;;
53833;SDS011;39735;51.432;5.482;2023-06-22T23:30:29;8.45;;;7.40;;
53833;SDS011;39735;51.432;5.482;2023-06-22T23:32:54;25.13;;;7.85;;
53833;SDS011;39735;51.432;5.482;2023-06-22T23:35:21;16.80;;;8.13;;
53833;SDS011;39735;51.432;5.482;2023-06-22T23:37:47;23.40;;;7.40;;
53833;SDS011;39735;51.432;5.482;2023-06-22T23:40:12;18.67;;;6.95;;
53833;SDS011;39735;51.432;5.482;2023-06-22T23:42:47;12.43;;;7.07;;
53833;SDS011;39735;51.432;5.482;2023-06-22T23:45:16;23.58;;;7.63;;
53833;SDS011;39735;51.432;5.482;2023-06-22T23:47:43;13.20;;;5.80;;
53833;SDS011;39735;51.432;5.482;2023-06-22T23:50:08;22.30;;;6.90;;
53833;SDS011;39735;51.432;5.482;2023-06-22T23:52:33;7.25;;;5.88;;
53833;SDS011;39735;51.432;5.482;2023-06-22T23:54:59;13.20;;;6.70;;
53833;SDS011;39735;51.432;5.482;2023-06-22T23:57:24;9.27;;;6.37;;
53833;SDS011;39735;51.432;5.482;2023-06-22T23:59:49;9.37;;;6.10;;
